Time;durP1;ratioP1;P1;durP2;ratioP2;P2;SDS_P1;SDS_P2;PMS_P1;PMS_P2;Temp;Humidity;BMP_temperature;BMP_pressure;BME280_temperature;BME280_humidity;BME280_pressure;Samples;Min_cycle;Max_cycle;Signal;HPM_P1;HPM_P2
2022/06/12 00:02:04;;;;;;;;;;;;;;;15.66;100.00;99401.75;4256067;33;19953;-76
2022/06/12 00:04:31;;;;;;;;;;;;;;;15.65;100.00;99405.53;4259053;33;19982;-78
2022/06/12 00:06:57;;;;;;;;;;;;;;;15.64;100.00;99403.94;4258065;33;19952;-78
2022/06/12 00:09:23;;;;;;;;;;;;;;;15.71;100.00;99407.16;4259329;33;19945;-78
2022/06/12 00:11:49;;;;;;;;;;;;;;;15.78;100.00;99407.75;4257104;33;19949;-82
2022/06/12 00:14:16;;;;;;;;;;;;;;;15.85;100.00;99408.25;4255847;33;19970;-76
2022/06/12 00:16:43;;;;;;;;;;;;;;;15.82;100.00;99408.78;4244125;33;19994;-78
2022/06/12 00:19:10;;;;;;;;;;;;;;;15.86;100.00;99409.06;4243050;33;20258;-78
2022/06/12 00:21:36;;;;;;;;;;;;;;;15.81;100.00;99412.59;4242775;33;19956;-78
2022/06/12 00:24:06;;;;;;;;;;;;;;;15.73;100.00;99408.53;4229093;33;19956;-78
2022/06/12 00:26:34;;;;;;;;;;;;;;;15.67;100.00;99406.06;4239018;33;19969;-76
2022/06/12 00:29:05;;;;;;;;;;;;;;;15.60;100.00;99401.75;4242147;33;19958;-79
2022/06/12 00:31:34;;;;;;;;;;;;;;;15.57;100.00;99396.88;4229306;33;19946;-79
2022/06/12 00:34:01;;;;;;;;;;;;;;;15.54;100.00;99394.72;4241463;33;19942;-79
2022/06/12 00:36:27;;;;;;;;;;;;;;;15.49;100.00;99404.75;4241548;33;19946;-78
2022/06/12 00:38:54;;;;;;;;;;;;;;;15.38;100.00;99399.34;4241531;33;19946;-79
2022/06/12 00:41:20;;;;;;;;;;;;;;;15.38;100.00;99403.94;4242180;33;19937;-79
2022/06/12 00:43:47;;;;;;;;;;;;;;;15.37;100.00;99399.59;4242621;33;19980;-79
2022/06/12 00:46:31;;;;;;;;;;;;;;;15.34;100.00;99395.53;4241526;33;19941;-79
2022/06/12 00:48:58;;;;;;;;;;;;;;;15.33;100.00;99395.81;4241767;33;21080;-79
2022/06/12 00:51:24;;;;;;;;;;;;;;;15.30;100.00;99396.34;4226185;34;19958;-79
2022/06/12 00:53:54;;;;;;;;;;;;;;;15.33;100.00;99401.22;4235927;33;19960;-80
2022/06/12 00:56:23;;;;;;;;;;;;;;;15.32;100.00;99394.19;4240989;33;19951;-74
2022/06/12 00:58:51;;;;;;;;;;;;;;;15.34;100.00;99400.97;4238688;33;20000;-77
2022/06/12 01:01:20;;;;;;;;;;;;;;;15.35;100.00;99393.63;4241499;33;19954;-77
2022/06/12 01:06:34;;;;;;;;;;;;;;;15.34;100.00;99389.31;4238921;33;19937;-76
2022/06/12 01:09:04;;;;;;;;;;;;;;;15.32;100.00;99384.16;4241465;33;19999;-78
2022/06/12 01:11:30;;;;;;;;;;;;;;;15.30;100.00;99385.50;4241010;33;19967;-79
2022/06/12 01:13:58;;;;;;;;;;;;;;;15.33;100.00;99384.94;4241225;33;20353;-79
2022/06/12 01:16:24;;;;;;;;;;;;;;;15.36;100.00;99381.69;4241217;33;20328;-76
2022/06/12 01:18:53;;;;;;;;;;;;;;;15.39;100.00;99383.87;4242238;33;19956;-79
2022/06/12 01:21:25;;;;;;;;;;;;;;;15.43;100.00;99382.25;4244242;33;20242;-79
2022/06/12 01:24:13;;;;;;;;;;;;;;;15.47;100.00;99385.22;4244534;33;20343;-79
2022/06/12 01:26:49;;;;;;;;;;;;;;;15.46;100.00;99373.56;4243670;33;19954;-78
2022/06/12 01:29:21;;;;;;;;;;;;;;;15.44;100.00;99371.13;4244487;33;19934;-79
2022/06/12 01:31:48;;;;;;;;;;;;;;;15.36;100.00;99370.84;4242983;33;20082;-77
2022/06/12 01:34:14;;;;;;;;;;;;;;;15.33;100.00;99372.19;4242160;33;19938;-78
2022/06/12 01:36:42;;;;;;;;;;;;;;;15.31;100.00;99365.44;4246367;33;19937;-79
2022/06/12 01:39:17;;;;;;;;;;;;;;;15.31;100.00;99370.84;4243695;33;19945;-79
2022/06/12 01:41:58;;;;;;;;;;;;;;;15.29;100.00;99373.03;4230318;33;20242;-79
2022/06/12 01:44:33;;;;;;;;;;;;;;;15.32;100.00;99367.87;4243150;33;19975;-78
2022/06/12 01:47:07;;;;;;;;;;;;;;;15.30;100.00;99366.50;4243778;33;20366;-79
2022/06/12 01:49:45;;;;;;;;;;;;;;;15.32;100.00;99373.28;4242811;33;20297;-77
2022/06/12 01:52:25;;;;;;;;;;;;;;;15.08;100.00;99319.59;4243582;33;19946;-79
2022/06/12 01:55:01;;;;;;;;;;;;;;;15.43;100.00;99363.25;4244071;33;19980;-78
2022/06/12 01:57:36;;;;;;;;;;;;;;;15.53;100.00;99368.66;4228482;33;20280;-78
2022/06/12 02:00:11;;;;;;;;;;;;;;;15.74;100.00;99363.97;4243582;33;19946;-78
2022/06/12 02:02:37;;;;;;;;;;;;;;;15.96;100.00;99366.41;4243571;33;19934;-78
2022/06/12 02:05:30;;;;;;;;;;;;;;;16.02;100.00;99374.53;4243142;33;19938;-75
2022/06/12 02:08:00;;;;;;;;;;;;;;;16.09;100.00;99375.06;4208071;33;19938;-78
2022/06/12 02:10:29;;;;;;;;;;;;;;;16.39;100.00;99371.38;4242006;33;19942;-78
2022/06/12 02:13:28;;;;;;;;;;;;;;;16.59;100.00;99370.44;4241104;33;19938;-78
2022/06/12 02:16:16;;;;;;;;;;;;;;;16.69;100.00;99370.38;4211557;33;19973;-79
2022/06/12 02:18:42;;;;;;;;;;;;;;;16.75;100.00;99375.78;4243668;33;19959;-79
2022/06/12 02:21:22;;;;;;;;;;;;;;;16.82;100.00;99370.88;4230517;33;19956;-78
2022/06/12 02:23:55;;;;;;;;;;;;;;;16.79;100.00;99363.25;4230404;33;19990;-79
2022/06/12 02:26:36;;;;;;;;;;;;;;;16.89;100.00;99360.50;4242484;33;19957;-79
2022/06/12 02:29:06;;;;;;;;;;;;;;;16.93;100.00;99367.00;4243026;33;20278;-80
2022/06/12 02:31:37;;;;;;;;;;;;;;;16.93;100.00;99367.00;4242975;33;19941;-79
2022/06/12 02:34:07;;;;;;;;;;;;;;;16.91;100.00;99369.16;4228500;33;19959;-76
2022/06/12 02:36:36;;;;;;;;;;;;;;;16.92;100.00;99370.81;4242212;33;19976;-79
2022/06/12 02:39:12;;;;;;;;;;;;;;;16.94;100.00;99357.72;4243064;33;19956;-79
2022/06/12 02:41:50;;;;;;;;;;;;;;;16.94;100.00;99363.16;4230208;33;20271;-78
2022/06/12 02:44:23;;;;;;;;;;;;;;;16.94;100.00;99368.59;4242463;33;19941;-78
2022/06/12 02:46:53;;;;;;;;;;;;;;;17.04;100.00;99368.53;4241894;33;19974;-78
2022/06/12 02:49:20;;;;;;;;;;;;;;;16.98;100.00;99363.44;4241735;33;19938;-79
2022/06/12 02:51:46;;;;;;;;;;;;;;;17.03;100.00;99368.81;4240218;33;20267;-77
2022/06/12 02:54:21;;;;;;;;;;;;;;;17.14;100.00;99361.41;4228749;33;19942;-79
2022/06/12 02:56:47;;;;;;;;;;;;;;;17.18;100.00;99362.44;4241875;33;19949;-78
2022/06/12 02:59:21;;;;;;;;;;;;;;;17.27;100.00;99366.16;4241404;33;19946;-78
2022/06/12 03:02:04;;;;;;;;;;;;;;;17.30;100.00;99365.59;4240479;33;19959;-77
2022/06/12 03:04:38;;;;;;;;;;;;;;;17.40;100.00;99365.50;4242894;33;20271;-79
2022/06/12 03:07:11;;;;;;;;;;;;;;;17.50;100.00;99363.78;4242485;33;19955;-79
2022/06/12 03:09:37;;;;;;;;;;;;;;;17.50;100.00;99363.78;4239993;33;20242;-79
2022/06/12 03:12:04;;;;;;;;;;;;;;;17.52;100.00;99361.56;4229500;33;19960;-80
2022/06/12 03:14:36;;;;;;;;;;;;;;;17.49;100.00;99356.72;4230643;33;19942;-80
2022/06/12 03:17:03;;;;;;;;;;;;;;;17.55;100.00;99361.00;4242860;33;19934;-79
2022/06/12 03:19:42;;;;;;;;;;;;;;;17.53;100.00;99353.13;4240772;33;19984;-78
2022/06/12 03:22:13;;;;;;;;;;;;;;;17.55;100.00;99355.56;4242487;33;19945;-80
2022/06/12 03:24:58;;;;;;;;;;;;;;;17.55;100.00;99352.84;4241924;33;19976;-80
2022/06/12 03:27:34;;;;;;;;;;;;;;;17.60;100.00;99358.25;4219645;33;19954;-80
2022/06/12 03:30:09;;;;;;;;;;;;;;;17.59;100.00;99353.91;4229102;33;20018;-80
2022/06/12 03:32:42;;;;;;;;;;;;;;;17.64;100.00;99348.38;4240048;33;19938;-78
2022/06/12 03:35:13;;;;;;;;;;;;;;;17.69;100.00;99353.78;4241783;33;19945;-80
2022/06/12 03:37:46;;;;;;;;;;;;;;;17.60;100.00;99350.09;4240777;33;19933;-79
2022/06/12 03:40:12;;;;;;;;;;;;;;;17.57;100.00;99350.66;4241832;33;19937;-79
2022/06/12 03:42:44;;;;;;;;;;;;;;;17.57;100.00;99350.66;4240808;33;19956;-78
2022/06/12 03:45:22;;;;;;;;;;;;;;;17.50;100.00;99347.44;4242248;33;20832;-80
2022/06/12 03:47:48;;;;;;;;;;;;;;;17.48;100.00;99349.66;4242249;33;19938;-80
2022/06/12 03:50:33;;;;;;;;;;;;;;;17.55;100.00;99352.84;4241421;33;19938;-79
2022/06/12 03:53:13;;;;;;;;;;;;;;;17.60;100.00;99347.34;4242072;33;20288;-78
2022/06/12 03:58:39;;;;;;;;;;;;;;;17.74;100.00;99350.19;4241726;33;19945;-78
2022/06/12 04:01:06;;;;;;;;;;;;;;;17.84;100.00;99357.44;4242037;33;19951;-77
2022/06/12 04:03:35;;;;;;;;;;;;;;;17.93;100.00;99355.72;4241279;33;19933;-75
2022/06/12 04:06:03;;;;;;;;;;;;;;;18.06;100.00;99354.19;4240552;33;19941;-80
2022/06/12 04:08:32;;;;;;;;;;;;;;;18.11;100.00;99357.69;4242071;33;20234;-80
2022/06/12 04:10:59;;;;;;;;;;;;;;;18.22;100.00;99363.00;4241494;33;20285;-80
2022/06/12 04:13:25;;;;;;;;;;;;;;;18.31;100.00;99353.06;4228113;33;19951;-77
2022/06/12 04:15:51;;;;;;;;;;;;;;;18.42;100.00;99357.28;4240321;33;19952;-79
2022/06/12 04:18:18;;;;;;;;;;;;;;;18.50;100.00;99356.62;4240868;33;19945;-80
2022/06/12 04:20:44;;;;;;;;;;;;;;;18.62;100.00;99352.63;4241525;33;19955;-80
2022/06/12 04:23:16;;;;;;;;;;;;;;;18.73;100.00;99356.84;4241893;33;19951;-80
2022/06/12 04:25:46;;;;;;;;;;;;;;;18.69;100.00;99355.81;4239948;33;19942;-78
2022/06/12 04:28:30;;;;;;;;;;;;;;;18.84;100.00;99363.81;4241245;33;20669;-81
2022/06/12 04:30:58;;;;;;;;;;;;;;;19.02;100.00;99358.63;4241012;33;19960;-80
2022/06/12 04:33:24;;;;;;;;;;;;;;;19.03;100.00;99361.06;4238833;33;20288;-76
2022/06/12 04:35:52;;;;;;;;;;;;;;;19.11;100.00;99362.28;4240347;33;19953;-78
2022/06/12 04:38:18;;;;;;;;;;;;;;;19.02;100.00;99359.44;4241467;33;19945;-80
2022/06/12 04:40:45;;;;;;;;;;;;;;;19.26;100.00;99357.66;4227547;33;19938;-78
2022/06/12 04:43:11;;;;;;;;;;;;;;;19.30;100.00;99361.44;4240095;33;19934;-78
2022/06/12 04:45:38;;;;;;;;;;;;;;;19.11;100.00;99323.25;4238423;33;19960;-79
2022/06/12 04:48:06;;;;;;;;;;;;;;;19.36;100.00;99357.50;4241273;33;19946;-79
2022/06/12 04:50:32;;;;;;;;;;;;;;;19.36;100.00;99368.44;4239942;33;19941;-80
2022/06/12 04:52:58;;;;;;;;;;;;;;;19.42;100.00;99364.50;4228331;34;19938;-84
2022/06/12 04:55:25;;;;;;;;;;;;;;;19.24;100.00;99360.69;4217328;34;19933;-82
2022/06/12 04:57:51;;;;;;;;;;;;;;;19.29;100.00;99362.53;4227373;34;19942;-85
2022/06/12 05:00:18;;;;;;;;;;;;;;;19.50;100.00;99357.53;4240134;33;20305;-77
2022/06/12 05:02:44;;;;;;;;;;;;;;;19.69;100.00;99368.37;4240626;33;19979;-77
2022/06/12 05:05:10;;;;;;;;;;;;;;;19.74;100.00;99368.28;4241352;33;19949;-77
2022/06/12 05:07:37;;;;;;;;;;;;;;;19.65;100.00;99364.62;4239142;33;19941;-77
2022/06/12 05:10:03;;;;;;;;;;;;;;;19.68;100.00;99364.84;4241209;33;19954;-76
2022/06/12 05:12:29;;;;;;;;;;;;;;;19.69;100.00;99371.91;4240804;33;19999;-77
2022/06/12 05:14:55;;;;;;;;;;;;;;;19.86;100.00;99374.06;4241245;33;19945;-74
2022/06/12 05:17:22;;;;;;;;;;;;;;;19.94;100.00;99367.09;4228536;33;19938;-75
2022/06/12 05:19:49;;;;;;;;;;;;;;;19.90;100.00;99372.38;4239175;33;19973;-76
2022/06/12 05:22:16;;;;;;;;;;;;;;;20.14;100.00;99360.41;4241679;33;20861;-79
2022/06/12 05:24:44;;;;;;;;;;;;;;;19.90;100.00;99364.16;4240887;33;20283;-77
2022/06/12 05:27:16;;;;;;;;;;;;;;;19.96;100.00;99359.44;4237602;33;19937;-77
2022/06/12 05:29:43;;;;;;;;;;;;;;;20.22;100.00;99358.91;4222323;33;19942;-76
2022/06/12 05:32:11;;;;;;;;;;;;;;;20.40;100.00;99363.41;4239293;33;19977;-76
2022/06/12 05:34:37;;;;;;;;;;;;;;;20.51;100.00;99364.00;4241188;33;20446;-77
2022/06/12 05:37:04;;;;;;;;;;;;;;;20.63;100.00;99361.53;4240964;33;19951;-79
2022/06/12 05:39:30;;;;;;;;;;;;;;;20.55;100.00;99362.28;4228598;33;19952;-77
2022/06/12 05:41:56;;;;;;;;;;;;;;;20.65;100.00;99364.78;4240459;33;19941;-77
2022/06/12 05:44:23;;;;;;;;;;;;;;;20.64;100.00;99368.63;4226730;33;20252;-76
2022/06/12 05:46:49;;;;;;;;;;;;;;;20.85;100.00;99357.22;4241045;33;19953;-77
2022/06/12 05:49:15;;;;;;;;;;;;;;;20.92;100.00;99357.62;4240924;33;19963;-77
2022/06/12 05:51:42;;;;;;;;;;;;;;;21.02;100.00;99357.34;4240805;33;19960;-78
2022/06/12 05:54:08;;;;;;;;;;;;;;;21.02;100.00;99362.03;4223411;34;19939;-78
2022/06/12 05:56:34;;;;;;;;;;;;;;;21.12;100.00;99359.03;4213026;34;19942;-77
2022/06/12 05:59:02;;;;;;;;;;;;;;;21.39;100.00;99371.75;4227002;34;19967;-77
2022/06/12 06:01:28;;;;;;;;;;;;;;;21.23;100.00;99367.81;4228072;33;20388;-76
2022/06/12 06:03:55;;;;;;;;;;;;;;;21.30;100.00;99368.19;4221435;33;20257;-77
2022/06/12 06:06:24;;;;;;;;;;;;;;;21.31;100.00;99367.03;4234108;33;19937;-73
2022/06/12 06:08:50;;;;;;;;;;;;;;;21.44;100.00;99370.81;4235746;33;19958;-78
2022/06/12 06:11:17;;;;;;;;;;;;;;;21.26;100.00;99378.13;4235137;33;19934;-78
2022/06/12 06:13:43;;;;;;;;;;;;;;;21.29;100.00;99377.50;4223480;33;19938;-77
2022/06/12 06:16:09;;;;;;;;;;;;;;;21.21;100.00;99376.31;4238113;33;20368;-78
2022/06/12 06:18:39;;;;;;;;;;;;;;;21.34;100.00;99377.38;4234123;33;19952;-77
2022/06/12 06:21:06;;;;;;;;;;;;;;;21.45;100.00;99383.41;4239847;33;20005;-79
2022/06/12 06:23:32;;;;;;;;;;;;;;;21.33;100.00;99383.16;4235828;33;19937;-79
2022/06/12 06:26:00;;;;;;;;;;;;;;;21.35;100.00;99387.22;4235468;33;19950;-78
2022/06/12 06:28:27;;;;;;;;;;;;;;;21.40;100.00;99378.88;4234432;33;19948;-78
2022/06/12 06:30:53;;;;;;;;;;;;;;;21.42;100.00;99387.56;4235503;33;19967;-79
2022/06/12 06:33:20;;;;;;;;;;;;;;;21.63;100.00;99376.09;4241678;33;20905;-79
2022/06/12 06:35:46;;;;;;;;;;;;;;;21.88;100.00;99382.03;4243660;33;19938;-78
2022/06/12 06:38:12;;;;;;;;;;;;;;;21.84;100.00;99386.53;4243080;33;19946;-78
2022/06/12 06:40:39;;;;;;;;;;;;;;;21.72;100.00;99387.94;4228999;33;20372;-77
2022/06/12 06:43:05;;;;;;;;;;;;;;;21.77;100.00;99382.31;4241972;33;19946;-77
2022/06/12 06:48:17;;;;;;;;;;;;;;;21.59;100.00;99383.34;4243912;33;19937;-77
2022/06/12 06:50:43;;;;;;;;;;;;;;;21.61;100.00;99380.31;4229779;33;19938;-78
2022/06/12 06:53:11;;;;;;;;;;;;;;;21.86;100.00;99389.75;4244154;33;19964;-77
2022/06/12 06:55:38;;;;;;;;;;;;;;;21.63;100.00;99386.28;4243604;33;20078;-78
2022/06/12 06:58:09;;;;;;;;;;;;;;;21.81;100.00;99387.16;4241631;33;19942;-78
2022/06/12 07:00:36;;;;;;;;;;;;;;;22.04;100.00;99385.97;4241048;33;19956;-77
2022/06/12 07:03:03;;;;;;;;;;;;;;;21.99;100.00;99383.37;4242289;33;20337;-78
2022/06/12 07:05:29;;;;;;;;;;;;;;;22.12;100.00;99376.94;4242262;33;19981;-78
2022/06/12 07:07:56;;;;;;;;;;;;;;;22.00;100.00;99371.25;4230269;33;19929;-78
2022/06/12 07:10:23;;;;;;;;;;;;;;;22.03;100.00;99381.59;4242842;33;19951;-77
2022/06/12 07:12:51;;;;;;;;;;;;;;;22.35;100.00;99378.81;4239691;33;19996;-78
2022/06/12 07:15:18;;;;;;;;;;;;;;;22.11;100.00;99372.59;4242858;33;19953;-79
2022/06/12 07:17:45;;;;;;;;;;;;;;;22.28;100.00;99374.56;4230125;33;19934;-78
2022/06/12 07:20:13;;;;;;;;;;;;;;;22.57;100.00;99369.66;4238781;33;20336;-78
2022/06/12 07:22:39;;;;;;;;;;;;;;;22.58;100.00;99371.28;4241199;33;19952;-76
2022/06/12 07:25:06;;;;;;;;;;;;;;;22.64;100.00;99376.28;4242186;33;20234;-79
2022/06/12 07:27:32;;;;;;;;;;;;;;;22.72;100.00;99376.59;4242405;33;19938;-77
2022/06/12 07:29:58;;;;;;;;;;;;;;;22.83;100.00;99370.47;4242185;33;19981;-80
2022/06/12 07:32:25;;;;;;;;;;;;;;;22.71;100.00;99375.78;4242435;33;20358;-77
2022/06/12 07:34:53;;;;;;;;;;;;;;;22.83;100.00;99377.88;4241339;33;19941;-77
2022/06/12 07:37:19;;;;;;;;;;;;;;;22.74;100.00;99344.16;4242907;33;19968;-77
2022/06/12 07:39:46;;;;;;;;;;;;;;;22.93;100.00;99380.31;4242910;33;19941;-77
2022/06/12 07:42:18;;;;;;;;;;;;;;;22.54;100.00;99378.53;4242942;33;19945;-78
2022/06/12 07:44:44;;;;;;;;;;;;;;;22.66;100.00;99378.69;4244526;33;20086;-78
2022/06/12 07:47:11;;;;;;;;;;;;;;;22.83;100.00;99373.22;4227806;33;19945;-77
2022/06/12 07:49:37;;;;;;;;;;;;;;;22.95;100.00;99374.50;4242209;33;19958;-78
2022/06/12 07:52:05;;;;;;;;;;;;;;;23.00;100.00;99371.59;4218291;34;19942;-78
2022/06/12 07:54:32;;;;;;;;;;;;;;;23.03;100.00;99376.44;4233466;33;19946;-78
2022/06/12 07:56:59;;;;;;;;;;;;;;;22.91;100.00;99373.53;4234280;33;20327;-76
2022/06/12 07:59:25;;;;;;;;;;;;;;;22.92;100.00;99369.66;4231078;33;19956;-77
2022/06/12 08:01:53;;;;;;;;;;;;;;;22.93;100.00;99371.25;4234268;33;19961;-77
2022/06/12 08:04:20;;;;;;;;;;;;;;;22.96;100.00;99365.12;4233740;33;19942;-77
2022/06/12 08:06:46;;;;;;;;;;;;;;;22.93;100.00;99376.75;4235691;33;20329;-77
2022/06/12 08:09:13;;;;;;;;;;;;;;;22.91;100.00;99359.78;4233612;33;19952;-75
2022/06/12 08:11:41;;;;;;;;;;;;;;;22.91;100.00;99362.53;4220876;33;20354;-76
2022/06/12 08:14:07;;;;;;;;;;;;;;;22.94;100.00;99361.91;4223144;33;19960;-77
2022/06/12 08:16:33;;;;;;;;;;;;;;;23.07;100.00;99355.44;4234090;33;19956;-76
2022/06/12 08:19:00;;;;;;;;;;;;;;;23.14;100.00;99361.25;4222345;33;19937;-75
2022/06/12 08:21:27;;;;;;;;;;;;;;;23.20;100.00;99365.44;4235679;33;20325;-75
2022/06/12 08:23:54;;;;;;;;;;;;;;;23.26;100.00;99363.31;4233814;33;20384;-76
2022/06/12 08:26:24;;;;;;;;;;;;;;;23.30;100.00;99358.00;4238766;33;20365;-75
2022/06/12 08:29:04;;;;;;;;;;;;;;;23.32;100.00;99362.03;4234797;33;19943;-75
2022/06/12 08:31:35;;;;;;;;;;;;;;;23.40;100.00;99357.66;4219149;33;19942;-75
2022/06/12 08:34:04;;;;;;;;;;;;;;;23.52;100.00;99354.22;4233811;33;19977;-77
2022/06/12 08:36:31;;;;;;;;;;;;;;;23.37;100.00;99363.78;4233686;33;19938;-77
2022/06/12 08:38:58;;;;;;;;;;;;;;;23.46;100.00;99361.03;4233595;33;20155;-77
2022/06/12 08:41:33;;;;;;;;;;;;;;;23.62;100.00;99353.06;4233694;33;20003;-75
2022/06/12 08:43:59;;;;;;;;;;;;;;;23.68;100.00;99358.03;4222538;33;19967;-80
2022/06/12 08:46:41;;;;;;;;;;;;;;;23.60;100.00;99366.31;4241556;33;19945;-76
2022/06/12 08:49:18;;;;;;;;;;;;;;;23.76;100.00;99361.91;4233968;33;19955;-75
2022/06/12 08:51:57;;;;;;;;;;;;;;;23.66;100.00;99365.00;4232251;33;19948;-75
2022/06/12 08:54:31;;;;;;;;;;;;;;;23.78;100.00;99367.87;4234131;33;19955;-75
2022/06/12 08:57:14;;;;;;;;;;;;;;;23.88;100.00;99362.00;4233397;33;20285;-75
2022/06/12 08:59:44;;;;;;;;;;;;;;;23.97;100.00;99361.19;4234935;33;20004;-76
2022/06/12 09:02:21;;;;;;;;;;;;;;;24.09;100.00;99366.78;4238054;33;20001;-74
2022/06/12 09:04:58;;;;;;;;;;;;;;;24.15;100.00;99353.66;4239290;33;19941;-76
2022/06/12 09:07:34;;;;;;;;;;;;;;;24.24;100.00;99351.66;4239759;33;19946;-76
2022/06/12 09:10:03;;;;;;;;;;;;;;;24.23;100.00;99353.59;4238420;33;19961;-75
2022/06/12 09:12:39;;;;;;;;;;;;;;;24.24;100.00;99352.44;4224545;33;19963;-75
2022/06/12 09:15:26;;;;;;;;;;;;;;;24.37;100.00;99355.28;4240320;33;20272;-74
2022/06/12 09:17:58;;;;;;;;;;;;;;;24.59;100.00;99341.22;4227368;33;19942;-75
2022/06/12 09:20:39;;;;;;;;;;;;;;;24.70;100.00;99346.31;4225218;33;19946;-76
2022/06/12 09:23:24;;;;;;;;;;;;;;;24.55;100.00;99351.25;4238368;33;19933;-75
2022/06/12 09:25:59;;;;;;;;;;;;;;;24.56;100.00;99336.41;4239486;33;19946;-75
2022/06/12 09:28:44;;;;;;;;;;;;;;;24.21;100.00;99342.12;4223489;34;19952;-76
2022/06/12 09:31:22;;;;;;;;;;;;;;;23.99;100.00;99339.66;4226634;34;19951;-77
2022/06/12 09:33:51;;;;;;;;;;;;;;;23.71;100.00;99345.56;4235449;33;19989;-75
2022/06/12 09:36:30;;;;;;;;;;;;;;;23.71;100.00;99340.06;4232171;33;19941;-75
2022/06/12 09:38:56;;;;;;;;;;;;;;;23.64;100.00;99329.59;4241549;33;19937;-76
2022/06/12 09:41:33;;;;;;;;;;;;;;;23.73;100.00;99333.13;4240513;33;19941;-76
2022/06/12 09:44:05;;;;;;;;;;;;;;;23.75;100.00;99330.03;4240401;33;19957;-74
2022/06/12 09:46:34;;;;;;;;;;;;;;;23.78;100.00;99329.38;4239281;33;19950;-75
2022/06/12 09:49:19;;;;;;;;;;;;;;;23.71;100.00;99324.41;4242780;33;19941;-75
2022/06/12 09:52:04;;;;;;;;;;;;;;;23.84;100.00;99317.09;4243576;33;19942;-76
2022/06/12 09:54:42;;;;;;;;;;;;;;;23.87;100.00;99316.44;4241912;33;19950;-75
2022/06/12 09:57:28;;;;;;;;;;;;;;;23.87;100.00;99305.44;4241276;33;19963;-73
2022/06/12 10:00:06;;;;;;;;;;;;;;;24.05;100.00;99310.84;4241040;33;19956;-74
2022/06/12 10:02:48;;;;;;;;;;;;;;;24.09;100.00;99306.25;4241204;33;19958;-74
2022/06/12 10:05:20;;;;;;;;;;;;;;;24.14;100.00;99305.25;4243571;33;19949;-74
2022/06/12 10:07:52;;;;;;;;;;;;;;;24.20;100.00;99301.97;4243520;33;19934;-73
2022/06/12 10:10:25;;;;;;;;;;;;;;;24.28;100.00;99297.56;4241605;33;19985;-73
2022/06/12 10:12:53;;;;;;;;;;;;;;;24.41;100.00;99295.69;4242969;33;19938;-73
2022/06/12 10:15:23;;;;;;;;;;;;;;;24.56;100.00;99286.84;4229232;33;19959;-73
2022/06/12 10:17:56;;;;;;;;;;;;;;;24.61;100.00;99289.38;4242726;33;19934;-73
2022/06/12 10:20:32;;;;;;;;;;;;;;;24.73;100.00;99293.34;4241696;33;20297;-73
2022/06/12 10:22:59;;;;;;;;;;;;;;;24.92;100.00;99288.16;4230448;33;19934;-73
2022/06/12 10:25:27;;;;;;;;;;;;;;;25.13;100.00;99287.25;4242931;33;20060;-73
2022/06/12 10:27:55;;;;;;;;;;;;;;;24.75;99.73;99289.12;4243293;33;19938;-73
2022/06/12 10:30:42;;;;;;;;;;;;;;;24.53;100.00;99290.25;4241028;33;19963;-74
2022/06/12 10:33:16;;;;;;;;;;;;;;;24.45;100.00;99280.12;4242274;33;19995;-73
2022/06/12 10:35:47;;;;;;;;;;;;;;;24.63;100.00;99281.59;4243306;33;19946;-73
2022/06/12 10:38:22;;;;;;;;;;;;;;;24.61;100.00;99274.84;4242711;33;19950;-73
2022/06/12 10:40:55;;;;;;;;;;;;;;;24.45;100.00;99274.63;4242423;33;20316;-73
2022/06/12 10:43:37;;;;;;;;;;;;;;;24.45;100.00;99269.91;4241900;33;19933;-73
2022/06/12 10:46:06;;;;;;;;;;;;;;;24.77;100.00;99269.50;4242502;33;19966;-73
2022/06/12 10:48:35;;;;;;;;;;;;;;;24.92;100.00;99255.09;4242094;33;19956;-73
2022/06/12 10:51:04;;;;;;;;;;;;;;;25.13;100.00;99254.19;4242643;33;19952;-73
2022/06/12 10:53:31;;;;;;;;;;;;;;;25.35;100.00;99248.31;4239733;33;19950;-74
2022/06/12 10:56:08;;;;;;;;;;;;;;;25.39;98.96;99251.19;4241477;33;20003;-72
2022/06/12 10:58:49;;;;;;;;;;;;;;;25.66;97.33;99249.69;4241775;33;19946;-72
2022/06/12 11:01:27;;;;;;;;;;;;;;;26.10;92.15;99255.41;4239370;33;19957;-73
2022/06/12 11:04:20;;;;;;;;;;;;;;;26.52;80.97;99261.69;4240862;33;20323;-72
2022/06/12 11:06:53;;;;;;;;;;;;;;;26.91;78.36;99267.56;4218756;33;20330;-72
2022/06/12 11:09:37;;;;;;;;;;;;;;;27.19;74.45;99260.00;4240832;33;20099;-72
2022/06/12 11:12:18;;;;;;;;;;;;;;;26.80;77.14;99257.00;4240479;33;19946;-73
2022/06/12 11:15:08;;;;;;;;;;;;;;;26.70;89.38;99252.00;4241519;33;19960;-72
2022/06/12 11:17:49;;;;;;;;;;;;;;;26.25;86.97;99251.09;4241872;33;19938;-72
2022/06/12 11:20:40;;;;;;;;;;;;;;;25.77;91.52;99255.53;4242563;33;19949;-72
2022/06/12 11:23:27;;;;;;;;;;;;;;;25.55;95.66;99243.03;4242900;33;20056;-73
2022/06/12 11:25:54;;;;;;;;;;;;;;;25.71;96.45;99246.69;4212208;33;19956;-73
2022/06/12 11:28:32;;;;;;;;;;;;;;;25.97;95.70;99248.28;4241670;33;19938;-73
2022/06/12 11:31:19;;;;;;;;;;;;;;;26.59;96.99;99234.31;4240063;33;20022;-74
2022/06/12 11:33:57;;;;;;;;;;;;;;;26.96;93.13;99242.44;4241087;33;19937;-73
2022/06/12 11:36:29;;;;;;;;;;;;;;;26.52;90.29;99234.91;4240416;33;20308;-74
2022/06/12 11:38:56;;;;;;;;;;;;;;;26.41;97.75;99240.13;4242321;33;20184;-73
2022/06/12 11:41:28;;;;;;;;;;;;;;;27.00;99.63;99232.28;4240823;33;19952;-73
2022/06/12 11:43:57;;;;;;;;;;;;;;;26.93;93.45;99226.56;4242326;33;19951;-73
2022/06/12 11:46:31;;;;;;;;;;;;;;;26.61;97.81;99226.47;4227396;33;20367;-73
2022/06/12 11:49:04;;;;;;;;;;;;;;;26.90;98.69;99221.75;4242217;33;19946;-73
2022/06/12 11:51:46;;;;;;;;;;;;;;;27.48;98.46;99213.75;4241981;33;19933;-73
2022/06/12 11:54:25;;;;;;;;;;;;;;;27.31;90.83;99214.91;4240576;33;19951;-73
2022/06/12 11:56:58;;;;;;;;;;;;;;;27.47;81.46;99217.66;4241828;33;19941;-72
2022/06/12 11:59:43;;;;;;;;;;;;;;;27.91;83.37;99217.47;4241575;33;19942;-74
2022/06/12 12:02:09;;;;;;;;;;;;;;;28.24;76.12;99210.72;4229684;33;19948;-73
2022/06/12 12:04:42;;;;;;;;;;;;;;;27.70;82.34;99211.50;4241959;33;20281;-73
2022/06/12 12:07:14;;;;;;;;;;;;;;;27.29;83.10;99202.59;4240727;33;19948;-74
2022/06/12 12:09:52;;;;;;;;;;;;;;;26.20;90.97;99204.44;4242053;33;20315;-73
2022/06/12 12:12:21;;;;;;;;;;;;;;;26.31;92.45;99202.00;4228704;33;19985;-73
2022/06/12 12:14:49;;;;;;;;;;;;;;;26.06;99.81;99195.75;4241571;33;19941;-74
2022/06/12 12:17:18;;;;;;;;;;;;;;;25.88;100.00;99200.69;4239934;33;19938;-73
2022/06/12 12:19:44;;;;;;;;;;;;;;;25.55;91.74;99201.69;4241781;33;20103;-72
2022/06/12 12:22:15;;;;;;;;;;;;;;;25.63;92.91;99200.75;4240552;33;19941;-73
2022/06/12 12:24:47;;;;;;;;;;;;;;;25.96;88.42;99199.78;4241225;33;19947;-74
2022/06/12 12:27:30;;;;;;;;;;;;;;;25.83;88.28;99200.94;4241125;33;19967;-73
2022/06/12 12:29:58;;;;;;;;;;;;;;;25.80;87.35;99198.88;4241662;33;19938;-73
2022/06/12 12:32:24;;;;;;;;;;;;;;;26.46;85.22;99192.94;4241637;33;19942;-73
2022/06/12 12:34:53;;;;;;;;;;;;;;;26.85;83.77;99186.09;4238656;33;19938;-73
2022/06/12 12:43:04;;;;;;;;;;;;;;;27.85;96.66;99177.44;4232196;33;20057;-73
2022/06/12 12:45:32;;;;;;;;;;;;;;;27.87;90.76;99188.97;4241362;33;19938;-73
2022/06/12 12:47:59;;;;;;;;;;;;;;;27.69;92.97;99190.50;4239844;33;19977;-73
2022/06/12 12:50:26;;;;;;;;;;;;;;;27.56;88.98;99189.84;4239974;33;19951;-73
2022/06/12 12:52:56;;;;;;;;;;;;;;;27.28;96.96;99187.16;4241365;33;19955;-73
2022/06/12 12:55:30;;;;;;;;;;;;;;;27.17;98.61;99198.78;4240120;33;19979;-74
2022/06/12 12:57:58;;;;;;;;;;;;;;;27.17;99.05;99182.19;4238423;33;19938;-75
2022/06/12 13:00:33;;;;;;;;;;;;;;;26.74;100.00;99194.91;4241530;33;19968;-73
2022/06/12 13:03:02;;;;;;;;;;;;;;;26.32;100.00;99200.03;4241525;33;19937;-73
2022/06/12 13:05:53;;;;;;;;;;;;;;;25.77;100.00;99188.53;4239900;33;19938;-73
2022/06/12 13:08:19;;;;;;;;;;;;;;;25.69;100.00;99185.59;4241479;33;20004;-73
2022/06/12 13:10:57;;;;;;;;;;;;;;;26.02;100.00;99184.59;4239609;33;19938;-73
2022/06/12 13:13:43;;;;;;;;;;;;;;;26.12;100.00;99183.31;4240100;33;20309;-75